sensor_id;sensor_type;location;lat;lon;timestamp;temperature;humidity
29849;DHT22;16728;50.832;5.590;2023-07-20T00:01:44;18.40;99.90
29849;DHT22;16728;50.832;5.590;2023-07-20T00:04:47;18.30;99.90
29849;DHT22;16728;50.832;5.590;2023-07-20T00:07:49;18.30;99.90
29849;DHT22;16728;50.832;5.590;2023-07-20T00:10:53;18.30;99.90
29849;DHT22;16728;50.832;5.590;2023-07-20T00:13:55;18.20;99.90
29849;DHT22;16728;50.832;5.590;2023-07-20T00:16:57;18.10;99.90
29849;DHT22;16728;50.832;5.590;2023-07-20T00:19:59;18.10;99.90
29849;DHT22;16728;50.832;5.590;2023-07-20T00:23:01;18.20;99.90
29849;DHT22;16728;50.832;5.590;2023-07-20T00:26:03;18.10;99.90
29849;DHT22;16728;50.832;5.590;2023-07-20T00:29:05;18.10;99.90
29849;DHT22;16728;50.832;5.590;2023-07-20T00:32:07;18.10;99.90
29849;DHT22;16728;50.832;5.590;2023-07-20T00:35:09;18.00;99.90
29849;DHT22;16728;50.832;5.590;2023-07-20T00:38:12;18.00;99.90
29849;DHT22;16728;50.832;5.590;2023-07-20T00:41:15;18.10;99.90
29849;DHT22;16728;50.832;5.590;2023-07-20T00:44:17;18.10;99.90
29849;DHT22;16728;50.832;5.590;2023-07-20T00:47:19;18.00;99.90
29849;DHT22;16728;50.832;5.590;2023-07-20T00:50:21;18.00;99.90
29849;DHT22;16728;50.832;5.590;2023-07-20T00:53:23;17.90;99.90
29849;DHT22;16728;50.832;5.590;2023-07-20T00:56:25;17.90;99.90
29849;DHT22;16728;50.832;5.590;2023-07-20T00:59:27;17.90;99.90
29849;DHT22;16728;50.832;5.590;2023-07-20T01:02:29;17.90;99.90
29849;DHT22;16728;50.832;5.590;2023-07-20T01:06:01;17.90;99.90
29849;DHT22;16728;50.832;5.590;2023-07-20T01:09:31;17.90;99.90
29849;DHT22;16728;50.832;5.590;2023-07-20T01:12:42;17.80;99.90
29849;DHT22;16728;50.832;5.590;2023-07-20T01:15:49;17.90;99.90
29849;DHT22;16728;50.832;5.590;2023-07-20T01:18:53;17.90;99.90
29849;DHT22;16728;50.832;5.590;2023-07-20T01:22:52;17.80;99.90
29849;DHT22;16728;50.832;5.590;2023-07-20T01:32:24;17.90;99.90
29849;DHT22;16728;50.832;5.590;2023-07-20T01:35:29;17.90;99.90
29849;DHT22;16728;50.832;5.590;2023-07-20T01:38:32;17.80;99.90
29849;DHT22;16728;50.832;5.590;2023-07-20T01:41:34;17.80;99.90
29849;DHT22;16728;50.832;5.590;2023-07-20T01:44:37;17.80;99.90
29849;DHT22;16728;50.832;5.590;2023-07-20T01:47:39;17.80;99.90
29849;DHT22;16728;50.832;5.590;2023-07-20T01:50:41;17.90;99.90
29849;DHT22;16728;50.832;5.590;2023-07-20T01:53:43;17.90;99.90
29849;DHT22;16728;50.832;5.590;2023-07-20T01:56:45;17.80;99.90
29849;DHT22;16728;50.832;5.590;2023-07-20T01:59:47;17.80;99.90
29849;DHT22;16728;50.832;5.590;2023-07-20T02:02:49;17.80;99.90
29849;DHT22;16728;50.832;5.590;2023-07-20T02:05:51;17.80;99.90
29849;DHT22;16728;50.832;5.590;2023-07-20T02:08:53;17.70;99.90
29849;DHT22;16728;50.832;5.590;2023-07-20T02:11:55;17.70;99.90
29849;DHT22;16728;50.832;5.590;2023-07-20T02:14:57;17.60;99.90
29849;DHT22;16728;50.832;5.590;2023-07-20T02:17:59;17.70;99.90
29849;DHT22;16728;50.832;5.590;2023-07-20T02:21:01;17.70;99.90
29849;DHT22;16728;50.832;5.590;2023-07-20T02:24:04;17.70;99.90
29849;DHT22;16728;50.832;5.590;2023-07-20T02:27:06;17.60;99.90
29849;DHT22;16728;50.832;5.590;2023-07-20T02:30:09;17.60;99.90
29849;DHT22;16728;50.832;5.590;2023-07-20T02:33:11;17.60;99.90
29849;DHT22;16728;50.832;5.590;2023-07-20T02:36:13;17.60;99.90
29849;DHT22;16728;50.832;5.590;2023-07-20T02:39:14;17.60;99.90
29849;DHT22;16728;50.832;5.590;2023-07-20T02:42:16;17.60;99.90
29849;DHT22;16728;50.832;5.590;2023-07-20T02:45:18;17.60;99.90
29849;DHT22;16728;50.832;5.590;2023-07-20T02:48:20;17.50;99.90
29849;DHT22;16728;50.832;5.590;2023-07-20T02:51:22;17.50;99.90
29849;DHT22;16728;50.832;5.590;2023-07-20T02:54:24;17.50;99.90
29849;DHT22;16728;50.832;5.590;2023-07-20T02:57:26;17.50;99.90
29849;DHT22;16728;50.832;5.590;2023-07-20T03:00:28;17.50;99.90
29849;DHT22;16728;50.832;5.590;2023-07-20T03:03:30;17.50;99.90
29849;DHT22;16728;50.832;5.590;2023-07-20T03:06:32;17.40;99.90
29849;DHT22;16728;50.832;5.590;2023-07-20T03:09:37;17.40;99.90
29849;DHT22;16728;50.832;5.590;2023-07-20T03:12:39;17.40;99.90
29849;DHT22;16728;50.832;5.590;2023-07-20T03:15:41;17.40;99.90
29849;DHT22;16728;50.832;5.590;2023-07-20T03:18:43;17.30;99.90
29849;DHT22;16728;50.832;5.590;2023-07-20T03:21:45;17.30;99.90
29849;DHT22;16728;50.832;5.590;2023-07-20T03:24:47;17.30;99.90
29849;DHT22;16728;50.832;5.590;2023-07-20T03:27:49;17.30;99.90
29849;DHT22;16728;50.832;5.590;2023-07-20T03:30:58;17.30;99.90
29849;DHT22;16728;50.832;5.590;2023-07-20T03:34:00;17.30;99.90
29849;DHT22;16728;50.832;5.590;2023-07-20T03:37:02;17.20;99.90
29849;DHT22;16728;50.832;5.590;2023-07-20T03:40:06;17.30;99.90
29849;DHT22;16728;50.832;5.590;2023-07-20T03:43:09;17.30;99.90
29849;DHT22;16728;50.832;5.590;2023-07-20T03:46:11;17.30;99.90
29849;DHT22;16728;50.832;5.590;2023-07-20T03:49:13;17.20;99.90
29849;DHT22;16728;50.832;5.590;2023-07-20T03:52:15;17.30;99.90
29849;DHT22;16728;50.832;5.590;2023-07-20T03:55:17;17.30;99.90
29849;DHT22;16728;50.832;5.590;2023-07-20T03:58:19;17.30;99.90
29849;DHT22;16728;50.832;5.590;2023-07-20T04:01:21;17.30;99.90
29849;DHT22;16728;50.832;5.590;2023-07-20T04:04:23;17.30;99.90
29849;DHT22;16728;50.832;5.590;2023-07-20T04:07:25;17.30;99.90
29849;DHT22;16728;50.832;5.590;2023-07-20T04:10:27;17.30;99.90
29849;DHT22;16728;50.832;5.590;2023-07-20T04:13:30;17.30;99.90
29849;DHT22;16728;50.832;5.590;2023-07-20T04:16:34;17.30;99.90
29849;DHT22;16728;50.832;5.590;2023-07-20T04:19:36;17.30;99.90
29849;DHT22;16728;50.832;5.590;2023-07-20T04:22:38;17.30;99.90
29849;DHT22;16728;50.832;5.590;2023-07-20T04:25:40;17.30;99.90
29849;DHT22;16728;50.832;5.590;2023-07-20T04:28:43;17.40;99.90
29849;DHT22;16728;50.832;5.590;2023-07-20T04:31:45;17.30;99.90
29849;DHT22;16728;50.832;5.590;2023-07-20T04:34:47;17.30;99.90
29849;DHT22;16728;50.832;5.590;2023-07-20T04:37:49;17.30;99.90
29849;DHT22;16728;50.832;5.590;2023-07-20T04:40:51;17.30;99.90
29849;DHT22;16728;50.832;5.590;2023-07-20T04:43:53;17.30;99.90
29849;DHT22;16728;50.832;5.590;2023-07-20T04:46:54;17.30;99.90
29849;DHT22;16728;50.832;5.590;2023-07-20T04:49:56;17.30;99.90
29849;DHT22;16728;50.832;5.590;2023-07-20T04:52:58;17.30;99.90
29849;DHT22;16728;50.832;5.590;2023-07-20T04:56:00;17.40;99.90
29849;DHT22;16728;50.832;5.590;2023-07-20T04:59:02;17.40;99.90
29849;DHT22;16728;50.832;5.590;2023-07-20T05:02:04;17.40;99.90
29849;DHT22;16728;50.832;5.590;2023-07-20T05:05:06;17.40;99.90
29849;DHT22;16728;50.832;5.590;2023-07-20T05:08:09;17.40;99.90
29849;DHT22;16728;50.832;5.590;2023-07-20T05:11:12;17.40;99.90
29849;DHT22;16728;50.832;5.590;2023-07-20T05:14:14;17.50;99.90
29849;DHT22;16728;50.832;5.590;2023-07-20T05:17:16;17.50;99.90
29849;DHT22;16728;50.832;5.590;2023-07-20T05:20:18;17.50;99.90
29849;DHT22;16728;50.832;5.590;2023-07-20T05:23:21;17.40;99.90
29849;DHT22;16728;50.832;5.590;2023-07-20T05:26:23;17.40;99.90
29849;DHT22;16728;50.832;5.590;2023-07-20T05:29:25;17.50;99.90
29849;DHT22;16728;50.832;5.590;2023-07-20T05:32:28;17.40;99.90
29849;DHT22;16728;50.832;5.590;2023-07-20T05:35:30;17.50;99.90
29849;DHT22;16728;50.832;5.590;2023-07-20T05:38:31;17.50;99.90
29849;DHT22;16728;50.832;5.590;2023-07-20T05:41:33;17.50;99.90
29849;DHT22;16728;50.832;5.590;2023-07-20T05:44:35;17.50;99.90
29849;DHT22;16728;50.832;5.590;2023-07-20T05:47:39;17.50;99.90
29849;DHT22;16728;50.832;5.590;2023-07-20T05:50:44;17.50;99.90
29849;DHT22;16728;50.832;5.590;2023-07-20T05:53:46;17.50;99.90
29849;DHT22;16728;50.832;5.590;2023-07-20T05:56:48;17.60;99.90
29849;DHT22;16728;50.832;5.590;2023-07-20T05:59:50;17.60;99.90
29849;DHT22;16728;50.832;5.590;2023-07-20T06:02:55;17.60;99.90
29849;DHT22;16728;50.832;5.590;2023-07-20T06:06:01;17.60;99.90
29849;DHT22;16728;50.832;5.590;2023-07-20T06:09:03;17.70;99.90
29849;DHT22;16728;50.832;5.590;2023-07-20T06:12:08;17.60;99.90
29849;DHT22;16728;50.832;5.590;2023-07-20T06:15:28;17.70;99.90
29849;DHT22;16728;50.832;5.590;2023-07-20T06:18:30;17.80;99.90
29849;DHT22;16728;50.832;5.590;2023-07-20T06:21:32;17.70;99.90
29849;DHT22;16728;50.832;5.590;2023-07-20T06:24:34;17.90;99.90
29849;DHT22;16728;50.832;5.590;2023-07-20T06:27:36;18.00;99.90
29849;DHT22;16728;50.832;5.590;2023-07-20T06:30:38;18.10;99.90
29849;DHT22;16728;50.832;5.590;2023-07-20T06:33:40;18.10;99.90
29849;DHT22;16728;50.832;5.590;2023-07-20T06:36:42;18.10;99.90
29849;DHT22;16728;50.832;5.590;2023-07-20T06:39:44;18.20;99.90
29849;DHT22;16728;50.832;5.590;2023-07-20T06:42:49;18.30;99.90
29849;DHT22;16728;50.832;5.590;2023-07-20T06:45:54;18.40;99.90
29849;DHT22;16728;50.832;5.590;2023-07-20T06:48:56;18.40;99.90
29849;DHT22;16728;50.832;5.590;2023-07-20T06:52:01;18.30;99.90
29849;DHT22;16728;50.832;5.590;2023-07-20T06:55:04;18.40;99.90
29849;DHT22;16728;50.832;5.590;2023-07-20T06:58:06;18.30;99.90
29849;DHT22;16728;50.832;5.590;2023-07-20T07:01:08;18.40;99.90
29849;DHT22;16728;50.832;5.590;2023-07-20T07:04:10;18.40;99.90
29849;DHT22;16728;50.832;5.590;2023-07-20T07:07:16;18.40;99.90
29849;DHT22;16728;50.832;5.590;2023-07-20T07:10:27;18.40;99.90
29849;DHT22;16728;50.832;5.590;2023-07-20T07:13:30;18.40;99.90
29849;DHT22;16728;50.832;5.590;2023-07-20T07:16:32;18.50;99.90
29849;DHT22;16728;50.832;5.590;2023-07-20T07:19:40;18.60;99.90
29849;DHT22;16728;50.832;5.590;2023-07-20T07:22:42;18.60;99.90
29849;DHT22;16728;50.832;5.590;2023-07-20T07:25:47;18.60;99.90
29849;DHT22;16728;50.832;5.590;2023-07-20T07:28:49;18.60;99.90
29849;DHT22;16728;50.832;5.590;2023-07-20T07:31:51;18.60;99.90
29849;DHT22;16728;50.832;5.590;2023-07-20T07:34:53;18.60;99.90
29849;DHT22;16728;50.832;5.590;2023-07-20T07:37:55;18.70;99.90
29849;DHT22;16728;50.832;5.590;2023-07-20T07:41:14;18.70;99.90
29849;DHT22;16728;50.832;5.590;2023-07-20T07:44:16;18.70;99.90
29849;DHT22;16728;50.832;5.590;2023-07-20T07:47:18;18.70;99.90
29849;DHT22;16728;50.832;5.590;2023-07-20T07:50:20;18.70;99.90
29849;DHT22;16728;50.832;5.590;2023-07-20T07:53:22;18.70;99.90
29849;DHT22;16728;50.832;5.590;2023-07-20T07:56:24;18.80;99.90
29849;DHT22;16728;50.832;5.590;2023-07-20T07:59:26;18.90;99.90
29849;DHT22;16728;50.832;5.590;2023-07-20T08:02:28;19.00;99.90
29849;DHT22;16728;50.832;5.590;2023-07-20T08:05:30;19.10;99.90
29849;DHT22;16728;50.832;5.590;2023-07-20T08:08:32;19.10;99.90
29849;DHT22;16728;50.832;5.590;2023-07-20T08:11:35;19.20;99.90
29849;DHT22;16728;50.832;5.590;2023-07-20T08:14:37;19.20;99.90
29849;DHT22;16728;50.832;5.590;2023-07-20T08:17:39;19.10;99.90
29849;DHT22;16728;50.832;5.590;2023-07-20T08:20:44;19.20;99.90
29849;DHT22;16728;50.832;5.590;2023-07-20T08:23:46;19.40;99.90
29849;DHT22;16728;50.832;5.590;2023-07-20T08:26:48;19.50;99.90
29849;DHT22;16728;50.832;5.590;2023-07-20T08:29:50;19.50;99.90
29849;DHT22;16728;50.832;5.590;2023-07-20T08:32:52;19.60;99.90
29849;DHT22;16728;50.832;5.590;2023-07-20T08:35:54;19.60;99.90
29849;DHT22;16728;50.832;5.590;2023-07-20T08:38:59;19.60;99.90
29849;DHT22;16728;50.832;5.590;2023-07-20T08:42:01;19.70;99.90
29849;DHT22;16728;50.832;5.590;2023-07-20T08:45:06;19.70;99.90
29849;DHT22;16728;50.832;5.590;2023-07-20T08:48:12;19.70;99.90
29849;DHT22;16728;50.832;5.590;2023-07-20T08:51:15;19.80;99.90
29849;DHT22;16728;50.832;5.590;2023-07-20T08:54:17;19.90;99.90
29849;DHT22;16728;50.832;5.590;2023-07-20T08:57:21;19.80;99.90
29849;DHT22;16728;50.832;5.590;2023-07-20T09:00:24;19.80;99.90
29849;DHT22;16728;50.832;5.590;2023-07-20T09:03:26;19.80;99.90
29849;DHT22;16728;50.832;5.590;2023-07-20T09:06:28;19.80;99.90
29849;DHT22;16728;50.832;5.590;2023-07-20T09:09:31;19.90;99.90
29849;DHT22;16728;50.832;5.590;2023-07-20T09:12:37;19.90;99.90
29849;DHT22;16728;50.832;5.590;2023-07-20T09:15:46;19.90;99.90
29849;DHT22;16728;50.832;5.590;2023-07-20T09:18:48;19.90;99.90
29849;DHT22;16728;50.832;5.590;2023-07-20T09:21:51;19.90;99.90
29849;DHT22;16728;50.832;5.590;2023-07-20T09:24:53;20.10;99.90
29849;DHT22;16728;50.832;5.590;2023-07-20T09:27:55;20.30;99.90
29849;DHT22;16728;50.832;5.590;2023-07-20T09:31:15;20.40;99.90
29849;DHT22;16728;50.832;5.590;2023-07-20T09:34:19;20.50;99.90
29849;DHT22;16728;50.832;5.590;2023-07-20T09:37:24;20.50;99.90
29849;DHT22;16728;50.832;5.590;2023-07-20T09:40:26;20.50;99.90
29849;DHT22;16728;50.832;5.590;2023-07-20T09:43:49;20.70;99.90
29849;DHT22;16728;50.832;5.590;2023-07-20T09:46:53;20.80;99.90
29849;DHT22;16728;50.832;5.590;2023-07-20T09:49:59;21.00;99.90
29849;DHT22;16728;50.832;5.590;2023-07-20T09:53:04;21.20;99.90
29849;DHT22;16728;50.832;5.590;2023-07-20T09:56:11;21.30;99.90
29849;DHT22;16728;50.832;5.590;2023-07-20T09:59:17;21.40;99.90
29849;DHT22;16728;50.832;5.590;2023-07-20T10:02:25;21.40;99.90
29849;DHT22;16728;50.832;5.590;2023-07-20T10:05:33;21.30;99.90
29849;DHT22;16728;50.832;5.590;2023-07-20T10:08:39;21.40;99.90
29849;DHT22;16728;50.832;5.590;2023-07-20T10:11:50;21.30;99.90
29849;DHT22;16728;50.832;5.590;2023-07-20T10:15:20;21.30;99.90
29849;DHT22;16728;50.832;5.590;2023-07-20T10:18:44;21.40;99.90
29849;DHT22;16728;50.832;5.590;2023-07-20T10:21:51;21.50;99.90
29849;DHT22;16728;50.832;5.590;2023-07-20T10:24:59;21.50;99.90
29849;DHT22;16728;50.832;5.590;2023-07-20T10:28:03;21.60;99.90
29849;DHT22;16728;50.832;5.590;2023-07-20T10:31:10;21.60;99.90
29849;DHT22;16728;50.832;5.590;2023-07-20T10:34:13;21.80;99.90
29849;DHT22;16728;50.832;5.590;2023-07-20T10:37:51;21.80;99.90
29849;DHT22;16728;50.832;5.590;2023-07-20T10:40:54;21.90;99.90
29849;DHT22;16728;50.832;5.590;2023-07-20T10:44:09;22.00;99.90
29849;DHT22;16728;50.832;5.590;2023-07-20T10:47:13;22.10;99.90
29849;DHT22;16728;50.832;5.590;2023-07-20T10:50:15;22.10;99.90
29849;DHT22;16728;50.832;5.590;2023-07-20T10:53:18;22.00;99.90
29849;DHT22;16728;50.832;5.590;2023-07-20T10:56:21;22.10;99.90
29849;DHT22;16728;50.832;5.590;2023-07-20T11:02:26;22.10;99.90
29849;DHT22;16728;50.832;5.590;2023-07-20T11:05:38;22.00;99.90
29849;DHT22;16728;50.832;5.590;2023-07-20T11:08:42;21.90;99.90
29849;DHT22;16728;50.832;5.590;2023-07-20T11:11:47;21.90;99.90
29849;DHT22;16728;50.832;5.590;2023-07-20T11:14:54;22.00;99.90
29849;DHT22;16728;50.832;5.590;2023-07-20T11:18:12;22.20;99.90
29849;DHT22;16728;50.832;5.590;2023-07-20T11:21:15;22.30;99.90
29849;DHT22;16728;50.832;5.590;2023-07-20T11:24:17;22.20;99.90
29849;DHT22;16728;50.832;5.590;2023-07-20T11:27:19;22.10;99.90
29849;DHT22;16728;50.832;5.590;2023-07-20T11:30:24;22.00;99.90
29849;DHT22;16728;50.832;5.590;2023-07-20T11:33:26;22.20;99.90
29849;DHT22;16728;50.832;5.590;2023-07-20T11:36:28;22.20;99.30
29849;DHT22;16728;50.832;5.590;2023-07-20T11:39:33;22.20;98.60
29849;DHT22;16728;50.832;5.590;2023-07-20T11:42:35;22.20;99.10
29849;DHT22;16728;50.832;5.590;2023-07-20T11:45:39;22.20;99.60
29849;DHT22;16728;50.832;5.590;2023-07-20T11:48:41;22.30;99.60
29849;DHT22;16728;50.832;5.590;2023-07-20T11:51:44;22.20;99.40
29849;DHT22;16728;50.832;5.590;2023-07-20T11:54:46;22.30;99.70
29849;DHT22;16728;50.832;5.590;2023-07-20T11:58:04;22.40;98.50
29849;DHT22;16728;50.832;5.590;2023-07-20T12:01:06;22.40;98.10
29849;DHT22;16728;50.832;5.590;2023-07-20T12:04:08;22.50;98.70
29849;DHT22;16728;50.832;5.590;2023-07-20T12:07:10;22.60;98.30
29849;DHT22;16728;50.832;5.590;2023-07-20T12:10:12;22.70;98.30
29849;DHT22;16728;50.832;5.590;2023-07-20T12:13:14;22.70;97.30
29849;DHT22;16728;50.832;5.590;2023-07-20T12:16:17;22.80;97.70
29849;DHT22;16728;50.832;5.590;2023-07-20T12:19:19;22.80;97.40
29849;DHT22;16728;50.832;5.590;2023-07-20T12:22:21;22.80;97.60
29849;DHT22;16728;50.832;5.590;2023-07-20T12:25:31;22.90;97.30
29849;DHT22;16728;50.832;5.590;2023-07-20T12:28:33;23.00;97.40
29849;DHT22;16728;50.832;5.590;2023-07-20T12:31:37;23.00;96.80
29849;DHT22;16728;50.832;5.590;2023-07-20T12:34:39;22.80;96.30
29849;DHT22;16728;50.832;5.590;2023-07-20T12:37:41;22.80;97.00
29849;DHT22;16728;50.832;5.590;2023-07-20T12:40:43;22.80;96.30
29849;DHT22;16728;50.832;5.590;2023-07-20T12:43:45;22.80;96.90
29849;DHT22;16728;50.832;5.590;2023-07-20T12:46:47;22.80;96.70
29849;DHT22;16728;50.832;5.590;2023-07-20T12:49:49;22.60;96.50
29849;DHT22;16728;50.832;5.590;2023-07-20T12:52:51;22.60;96.50
29849;DHT22;16728;50.832;5.590;2023-07-20T12:55:53;22.70;96.70
29849;DHT22;16728;50.832;5.590;2023-07-20T12:58:56;22.80;96.60
29849;DHT22;16728;50.832;5.590;2023-07-20T13:01:58;22.90;96.80
29849;DHT22;16728;50.832;5.590;2023-07-20T13:04:59;22.90;96.40
29849;DHT22;16728;50.832;5.590;2023-07-20T13:08:02;23.00;96.10
29849;DHT22;16728;50.832;5.590;2023-07-20T13:11:08;23.00;96.50
29849;DHT22;16728;50.832;5.590;2023-07-20T13:14:09;23.00;96.10
29849;DHT22;16728;50.832;5.590;2023-07-20T13:17:13;23.00;96.20
29849;DHT22;16728;50.832;5.590;2023-07-20T13:20:15;22.90;95.40
29849;DHT22;16728;50.832;5.590;2023-07-20T13:23:17;23.00;95.10
29849;DHT22;16728;50.832;5.590;2023-07-20T13:26:19;22.90;95.70
29849;DHT22;16728;50.832;5.590;2023-07-20T13:29:21;23.10;96.20
29849;DHT22;16728;50.832;5.590;2023-07-20T13:32:23;23.10;95.60
29849;DHT22;16728;50.832;5.590;2023-07-20T13:35:25;23.10;95.40
29849;DHT22;16728;50.832;5.590;2023-07-20T13:38:47;23.00;95.50
29849;DHT22;16728;50.832;5.590;2023-07-20T13:41:50;22.80;95.30
29849;DHT22;16728;50.832;5.590;2023-07-20T13:44:52;22.80;95.10
29849;DHT22;16728;50.832;5.590;2023-07-20T13:47:54;22.70;95.40
29849;DHT22;16728;50.832;5.590;2023-07-20T13:50:56;22.80;95.50
29849;DHT22;16728;50.832;5.590;2023-07-20T13:54:01;22.90;95.00
29849;DHT22;16728;50.832;5.590;2023-07-20T13:57:22;23.00;94.60
29849;DHT22;16728;50.832;5.590;2023-07-20T14:00:24;23.10;95.40
29849;DHT22;16728;50.832;5.590;2023-07-20T14:03:29;23.30;94.90
29849;DHT22;16728;50.832;5.590;2023-07-20T14:06:32;23.40;94.30
29849;DHT22;16728;50.832;5.590;2023-07-20T14:09:34;23.40;94.00
29849;DHT22;16728;50.832;5.590;2023-07-20T14:12:36;23.40;94.10
29849;DHT22;16728;50.832;5.590;2023-07-20T14:15:39;23.50;93.70
29849;DHT22;16728;50.832;5.590;2023-07-20T14:18:41;23.50;93.00
29849;DHT22;16728;50.832;5.590;2023-07-20T14:21:43;23.60;93.60
29849;DHT22;16728;50.832;5.590;2023-07-20T14:24:45;23.60;93.00
29849;DHT22;16728;50.832;5.590;2023-07-20T14:27:47;23.70;93.10
29849;DHT22;16728;50.832;5.590;2023-07-20T14:30:50;23.80;93.60
29849;DHT22;16728;50.832;5.590;2023-07-20T14:33:52;23.80;93.20
29849;DHT22;16728;50.832;5.590;2023-07-20T14:36:54;23.70;93.90
29849;DHT22;16728;50.832;5.590;2023-07-20T14:39:56;23.60;93.90
29849;DHT22;16728;50.832;5.590;2023-07-20T14:42:58;23.40;94.10
29849;DHT22;16728;50.832;5.590;2023-07-20T14:46:02;23.40;94.30
29849;DHT22;16728;50.832;5.590;2023-07-20T14:49:04;23.30;94.30
29849;DHT22;16728;50.832;5.590;2023-07-20T14:52:06;23.20;94.10
29849;DHT22;16728;50.832;5.590;2023-07-20T14:55:16;23.20;94.00
29849;DHT22;16728;50.832;5.590;2023-07-20T14:58:18;23.20;94.10
29849;DHT22;16728;50.832;5.590;2023-07-20T15:01:21;23.20;94.00
29849;DHT22;16728;50.832;5.590;2023-07-20T15:04:24;23.30;93.90
29849;DHT22;16728;50.832;5.590;2023-07-20T15:07:28;23.30;94.00
29849;DHT22;16728;50.832;5.590;2023-07-20T15:10:30;23.40;94.20
29849;DHT22;16728;50.832;5.590;2023-07-20T15:13:32;23.30;93.70
29849;DHT22;16728;50.832;5.590;2023-07-20T15:16:33;23.20;93.60
29849;DHT22;16728;50.832;5.590;2023-07-20T15:19:37;23.20;93.40
29849;DHT22;16728;50.832;5.590;2023-07-20T15:22:39;23.20;93.70
29849;DHT22;16728;50.832;5.590;2023-07-20T15:25:41;23.20;93.10
29849;DHT22;16728;50.832;5.590;2023-07-20T15:28:43;23.30;93.30
29849;DHT22;16728;50.832;5.590;2023-07-20T15:31:45;23.20;94.10
29849;DHT22;16728;50.832;5.590;2023-07-20T15:34:50;23.20;94.50
29849;DHT22;16728;50.832;5.590;2023-07-20T15:37:51;23.10;94.10
29849;DHT22;16728;50.832;5.590;2023-07-20T15:40:54;23.10;93.90
29849;DHT22;16728;50.832;5.590;2023-07-20T15:43:57;23.00;93.70
29849;DHT22;16728;50.832;5.590;2023-07-20T15:46:59;23.00;93.70
29849;DHT22;16728;50.832;5.590;2023-07-20T15:50:02;22.90;93.90
29849;DHT22;16728;50.832;5.590;2023-07-20T15:53:04;22.90;94.10
29849;DHT22;16728;50.832;5.590;2023-07-20T15:56:07;22.90;94.70
29849;DHT22;16728;50.832;5.590;2023-07-20T15:59:11;22.90;94.40
29849;DHT22;16728;50.832;5.590;2023-07-20T16:02:13;22.80;94.00
29849;DHT22;16728;50.832;5.590;2023-07-20T16:05:16;22.80;94.00
29849;DHT22;16728;50.832;5.590;2023-07-20T16:08:19;22.70;93.70
29849;DHT22;16728;50.832;5.590;2023-07-20T16:11:21;22.70;93.60
29849;DHT22;16728;50.832;5.590;2023-07-20T16:14:26;22.60;93.80
29849;DHT22;16728;50.832;5.590;2023-07-20T16:17:28;22.60;93.90
29849;DHT22;16728;50.832;5.590;2023-07-20T16:20:30;22.60;94.10
29849;DHT22;16728;50.832;5.590;2023-07-20T16:23:32;22.60;93.90
29849;DHT22;16728;50.832;5.590;2023-07-20T16:26:35;22.50;93.90
29849;DHT22;16728;50.832;5.590;2023-07-20T16:29:37;22.50;93.60
29849;DHT22;16728;50.832;5.590;2023-07-20T16:32:42;22.60;94.20
29849;DHT22;16728;50.832;5.590;2023-07-20T16:35:45;22.60;93.70
29849;DHT22;16728;50.832;5.590;2023-07-20T16:38:49;22.70;93.70
29849;DHT22;16728;50.832;5.590;2023-07-20T16:42:11;22.80;93.90
29849;DHT22;16728;50.832;5.590;2023-07-20T16:45:14;22.90;93.80
29849;DHT22;16728;50.832;5.590;2023-07-20T16:48:16;22.80;93.90
29849;DHT22;16728;50.832;5.590;2023-07-20T16:51:20;22.80;94.00
29849;DHT22;16728;50.832;5.590;2023-07-20T16:54:22;22.80;94.60
29849;DHT22;16728;50.832;5.590;2023-07-20T16:57:24;22.80;94.80
29849;DHT22;16728;50.832;5.590;2023-07-20T17:00:26;22.70;94.50
29849;DHT22;16728;50.832;5.590;2023-07-20T17:03:28;22.80;94.40
29849;DHT22;16728;50.832;5.590;2023-07-20T17:06:30;22.70;94.30
29849;DHT22;16728;50.832;5.590;2023-07-20T17:09:34;22.60;94.30
29849;DHT22;16728;50.832;5.590;2023-07-20T17:12:37;22.50;94.60
29849;DHT22;16728;50.832;5.590;2023-07-20T17:15:40;22.50;94.80
29849;DHT22;16728;50.832;5.590;2023-07-20T17:18:42;22.50;95.10
29849;DHT22;16728;50.832;5.590;2023-07-20T17:21:44;22.50;95.30
29849;DHT22;16728;50.832;5.590;2023-07-20T17:24:46;22.40;95.40
29849;DHT22;16728;50.832;5.590;2023-07-20T17:27:51;22.40;95.40
29849;DHT22;16728;50.832;5.590;2023-07-20T17:30:59;22.30;95.90
29849;DHT22;16728;50.832;5.590;2023-07-20T17:34:02;22.30;96.10
29849;DHT22;16728;50.832;5.590;2023-07-20T17:37:04;22.30;96.00
29849;DHT22;16728;50.832;5.590;2023-07-20T17:40:10;22.20;96.20
29849;DHT22;16728;50.832;5.590;2023-07-20T17:43:15;22.20;96.40
29849;DHT22;16728;50.832;5.590;2023-07-20T17:46:17;22.20;96.70
29849;DHT22;16728;50.832;5.590;2023-07-20T17:49:22;22.10;96.90
29849;DHT22;16728;50.832;5.590;2023-07-20T17:52:24;22.10;97.30
29849;DHT22;16728;50.832;5.590;2023-07-20T17:55:26;22.00;97.50
29849;DHT22;16728;50.832;5.590;2023-07-20T17:58:30;22.00;97.60
29849;DHT22;16728;50.832;5.590;2023-07-20T18:01:32;21.90;97.70
29849;DHT22;16728;50.832;5.590;2023-07-20T18:04:34;21.80;97.90
29849;DHT22;16728;50.832;5.590;2023-07-20T18:07:36;21.80;98.20
29849;DHT22;16728;50.832;5.590;2023-07-20T18:10:41;21.80;98.50
29849;DHT22;16728;50.832;5.590;2023-07-20T18:13:43;21.80;98.60
29849;DHT22;16728;50.832;5.590;2023-07-20T18:16:44;21.70;98.60
29849;DHT22;16728;50.832;5.590;2023-07-20T18:19:46;21.70;98.70
29849;DHT22;16728;50.832;5.590;2023-07-20T18:22:49;21.70;98.80
29849;DHT22;16728;50.832;5.590;2023-07-20T18:25:51;21.60;99.90
29849;DHT22;16728;50.832;5.590;2023-07-20T18:28:53;21.40;99.90
29849;DHT22;16728;50.832;5.590;2023-07-20T18:31:55;20.90;99.90
29849;DHT22;16728;50.832;5.590;2023-07-20T18:35:01;20.70;99.90
29849;DHT22;16728;50.832;5.590;2023-07-20T18:38:04;20.50;99.90
29849;DHT22;16728;50.832;5.590;2023-07-20T18:41:07;20.20;99.90
29849;DHT22;16728;50.832;5.590;2023-07-20T18:44:08;20.00;99.90
29849;DHT22;16728;50.832;5.590;2023-07-20T18:47:10;19.80;99.90
29849;DHT22;16728;50.832;5.590;2023-07-20T18:50:13;19.80;99.90
29849;DHT22;16728;50.832;5.590;2023-07-20T18:53:16;19.60;99.90
29849;DHT22;16728;50.832;5.590;2023-07-20T18:56:18;19.50;99.90
29849;DHT22;16728;50.832;5.590;2023-07-20T18:59:20;19.10;99.90
29849;DHT22;16728;50.832;5.590;2023-07-20T19:02:23;18.90;99.90
29849;DHT22;16728;50.832;5.590;2023-07-20T19:05:25;18.80;99.90
29849;DHT22;16728;50.832;5.590;2023-07-20T19:08:28;18.70;99.90
29849;DHT22;16728;50.832;5.590;2023-07-20T19:11:30;18.50;99.90
29849;DHT22;16728;50.832;5.590;2023-07-20T19:14:36;18.50;99.90
29849;DHT22;16728;50.832;5.590;2023-07-20T19:17:39;18.50;99.90
29849;DHT22;16728;50.832;5.590;2023-07-20T19:20:42;18.50;99.90
29849;DHT22;16728;50.832;5.590;2023-07-20T19:23:44;18.50;99.90
29849;DHT22;16728;50.832;5.590;2023-07-20T19:26:46;18.50;99.90
29849;DHT22;16728;50.832;5.590;2023-07-20T19:29:48;18.50;99.90